createdAt,value
2023-03-05T00:01:33.123Z,99025.00
2023-03-05T00:04:03.425Z,99019.09
2023-03-05T00:06:33.826Z,99021.72
2023-03-05T00:09:02.368Z,99019.09
2023-03-05T00:11:33.358Z,99020.06
2023-03-05T00:14:04.025Z,99023.09
2023-03-05T00:16:32.085Z,99023.09
2023-03-05T00:19:02.241Z,99020.06
2023-03-05T00:21:34.945Z,99020.06
2023-03-05T00:24:12.566Z,99019.09
2023-03-05T00:26:40.086Z,99016.44
2023-03-05T00:29:09.327Z,99025.72
2023-03-05T00:31:38.236Z,99011.53
2023-03-05T00:34:11.201Z,99008.25
2023-03-05T00:36:45.591Z,99004.63
2023-03-05T00:39:13.821Z,99002.63
2023-03-05T00:41:41.551Z,99002.63
2023-03-05T00:44:08.567Z,99002.63
2023-03-05T00:46:36.413Z,98996.50
2023-03-05T00:49:04.555Z,98990.41
2023-03-05T00:51:32.029Z,98994.06
2023-03-05T00:53:59.032Z,98992.41
2023-03-05T00:56:26.347Z,98989.16
2023-03-05T00:58:54.036Z,98986.50
2023-03-05T01:01:21.538Z,98985.88
2023-03-05T01:03:48.670Z,98985.88
2023-03-05T01:06:17.153Z,98986.88
2023-03-05T01:08:45.188Z,98982.22
2023-03-05T01:11:13.312Z,98980.59
2023-03-05T01:13:40.840Z,98985.06
2023-03-05T01:16:08.636Z,98979.78
2023-03-05T01:18:37.685Z,98981.41
2023-03-05T01:21:05.672Z,98979.78
2023-03-05T01:23:34.444Z,98984.22
2023-03-05T01:26:02.420Z,98975.34
2023-03-05T01:28:29.623Z,98972.03
2023-03-05T01:30:56.858Z,98984.22
2023-03-05T01:33:24.004Z,98981.94
2023-03-05T01:35:52.155Z,98978.50
2023-03-05T01:38:19.346Z,98980.13
2023-03-05T01:40:46.675Z,98982.97
2023-03-05T01:43:13.788Z,98980.50
2023-03-05T01:46:13.092Z,98969.13
2023-03-05T01:48:44.217Z,98980.50
2023-03-05T01:51:12.457Z,98978.06
2023-03-05T01:53:40.103Z,98973.75
2023-03-05T01:56:07.891Z,98976.75
2023-03-05T01:58:35.236Z,98980.41
2023-03-05T02:01:05.377Z,98978.75
2023-03-05T02:03:34.546Z,98980.78
2023-03-05T02:06:04.229Z,98989.69
2023-03-05T02:08:31.566Z,98979.94
2023-03-05T02:11:00.365Z,98980.78
2023-03-05T02:13:34.035Z,98986.41
2023-03-05T02:16:03.199Z,98979.50
2023-03-05T02:18:30.721Z,98975.84
2023-03-05T02:21:00.455Z,98981.31
2023-03-05T02:23:36.663Z,98974.59
2023-03-05T02:26:11.104Z,98982.69
2023-03-05T02:28:49.143Z,98982.84
2023-03-05T02:31:23.458Z,98973.69
2023-03-05T02:33:53.859Z,98970.84
2023-03-05T02:36:22.952Z,98972.03
2023-03-05T02:38:50.336Z,98970.41
2023-03-05T02:41:17.542Z,98970.03
2023-03-05T02:43:44.524Z,98973.69
2023-03-05T02:46:12.447Z,98967.59
2023-03-05T02:48:39.690Z,98963.28
2023-03-05T02:51:08.511Z,98963.28
2023-03-05T02:53:35.983Z,98968.75
2023-03-05T02:56:04.583Z,98961.47
2023-03-05T02:58:34.330Z,98963.13
2023-03-05T03:01:02.390Z,98949.13
2023-03-05T03:03:30.645Z,98957.50
2023-03-05T03:05:58.201Z,98952.03
2023-03-05T03:08:25.168Z,98949.41
2023-03-05T03:10:52.468Z,98944.94
2023-03-05T03:13:19.372Z,98950.56
2023-03-05T03:15:46.617Z,98933.94
2023-03-05T03:18:13.593Z,98955.84
2023-03-05T03:20:40.972Z,98953.41
2023-03-05T03:23:08.320Z,98948.50
2023-03-05T03:25:35.477Z,98938.78
2023-03-05T03:28:02.937Z,98943.66
2023-03-05T03:30:30.286Z,98933.09
2023-03-05T03:32:57.908Z,98934.75
2023-03-05T03:35:25.200Z,98940.03
2023-03-05T03:37:52.095Z,98932.13
2023-03-05T03:40:19.565Z,98931.13
2023-03-05T03:42:46.647Z,98931.13
2023-03-05T03:45:14.399Z,98925.03
2023-03-05T03:47:41.366Z,98940.03
2023-03-05T03:50:10.643Z,98936.75
2023-03-05T03:52:37.543Z,98935.75
2023-03-05T03:55:05.256Z,98930.47
2023-03-05T03:57:33.553Z,98926.22
2023-03-05T04:00:01.305Z,98929.84
2023-03-05T04:02:28.471Z,98926.22
2023-03-05T04:04:55.756Z,98919.28
2023-03-05T04:07:22.794Z,98921.56
2023-03-05T04:09:50.371Z,98906.72
2023-03-05T04:12:18.329Z,98906.72
2023-03-05T04:14:47.916Z,98910.38
2023-03-05T04:17:16.287Z,98911.38
2023-03-05T04:19:44.895Z,98901.84
2023-03-05T04:22:17.932Z,98908.75
2023-03-05T04:24:45.127Z,98907.13
2023-03-05T04:27:12.156Z,98904.50
2023-03-05T04:29:39.454Z,98902.63
2023-03-05T04:32:06.741Z,98903.47
2023-03-05T04:34:34.234Z,98895.75
2023-03-05T04:37:01.350Z,98892.91
2023-03-05T04:39:28.688Z,98896.56
2023-03-05T04:41:55.610Z,98896.56
2023-03-05T04:44:25.254Z,98897.56
2023-03-05T04:46:52.612Z,98888.81
2023-03-05T04:49:20.533Z,98895.91
2023-03-05T04:51:47.550Z,98890.84
2023-03-05T04:54:14.724Z,98887.22
2023-03-05T04:56:41.723Z,98891.66
2023-03-05T04:59:08.965Z,98886.38
2023-03-05T05:01:35.982Z,98883.94
2023-03-05T05:04:03.254Z,98896.94
2023-03-05T05:06:30.341Z,98892.22
2023-03-05T05:08:57.875Z,98891.38
2023-03-05T05:11:25.048Z,98878.56
2023-03-05T05:13:52.312Z,98881.19
2023-03-05T05:16:19.428Z,98886.66
2023-03-05T05:18:46.593Z,98882.56
2023-03-05T05:21:15.172Z,98882.56
2023-03-05T05:23:42.304Z,98881.94
2023-03-05T05:26:14.153Z,98880.28
2023-03-05T05:28:43.676Z,98872.38
2023-03-05T05:31:13.859Z,98877.84
2023-03-05T05:33:42.353Z,98871.56
2023-03-05T05:36:14.396Z,98865.47
2023-03-05T05:38:42.534Z,98863.03
2023-03-05T05:41:14.109Z,98864.84
2023-03-05T05:43:42.496Z,98867.47
2023-03-05T05:46:14.809Z,98865.66
2023-03-05T05:48:42.736Z,98873.56
2023-03-05T05:51:18.340Z,98867.88
2023-03-05T05:53:46.760Z,98876.13
2023-03-05T05:56:16.553Z,98884.75
2023-03-05T05:58:47.793Z,98882.84
2023-03-05T06:01:29.419Z,98887.00
2023-03-05T06:03:57.956Z,98888.19
2023-03-05T06:06:27.220Z,98890.63
2023-03-05T06:08:55.105Z,98893.47
2023-03-05T06:11:22.835Z,98894.53
2023-03-05T06:13:50.481Z,98902.59
2023-03-05T06:16:22.069Z,98903.63
2023-03-05T06:18:51.176Z,98904.63
2023-03-05T06:21:22.003Z,98905.78
2023-03-05T06:23:50.273Z,98912.72
2023-03-05T06:26:22.053Z,98902.81
2023-03-05T06:28:49.383Z,98906.06
2023-03-05T06:31:21.870Z,98907.06
2023-03-05T06:33:50.310Z,98903.78
2023-03-05T06:36:20.160Z,98891.63
2023-03-05T06:38:49.146Z,98895.88
2023-03-05T06:41:21.142Z,98882.00
2023-03-05T06:43:49.010Z,98882.09
2023-03-05T06:46:31.653Z,98877.66
2023-03-05T06:49:02.579Z,98878.13
2023-03-05T06:51:34.844Z,98874.28
2023-03-05T06:54:05.117Z,98881.81
2023-03-05T06:56:32.620Z,98881.81
2023-03-05T06:58:59.905Z,98885.09
2023-03-05T07:01:27.000Z,98886.75
2023-03-05T07:03:55.647Z,98884.94
2023-03-05T07:06:22.945Z,98890.00
2023-03-05T07:08:50.690Z,98886.56
2023-03-05T07:11:21.042Z,98885.56
2023-03-05T07:13:49.443Z,98886.38
2023-03-05T07:16:29.768Z,98889.38
2023-03-05T07:18:59.726Z,98890.75
2023-03-05T07:21:30.831Z,98888.28
2023-03-05T07:24:04.460Z,98881.81
2023-03-05T07:26:33.599Z,98876.56
2023-03-05T07:29:01.790Z,98872.94
2023-03-05T07:31:31.772Z,98872.94
2023-03-05T07:34:02.307Z,98878.22
2023-03-05T07:36:31.280Z,98872.59
2023-03-05T07:38:58.354Z,98864.47
2023-03-05T07:41:25.859Z,98869.28
2023-03-05T07:43:55.068Z,98867.66
2023-03-05T07:46:30.234Z,98857.13
2023-03-05T07:48:57.738Z,98866.22
2023-03-05T07:51:27.007Z,98867.03
2023-03-05T07:53:57.724Z,98859.13
2023-03-05T07:56:35.096Z,98852.69
2023-03-05T07:59:07.582Z,98860.38
2023-03-05T08:01:36.004Z,98852.47
2023-03-05T08:04:05.707Z,98847.84
2023-03-05T08:06:33.077Z,98840.94
2023-03-05T08:09:00.347Z,98844.22
2023-03-05T08:11:30.628Z,98838.59
2023-03-05T08:13:59.374Z,98830.69
2023-03-05T08:16:27.329Z,98821.13
2023-03-05T08:18:57.350Z,98821.59
2023-03-05T08:21:33.904Z,98824.03
2023-03-05T08:24:04.404Z,98824.22
2023-03-05T08:26:34.481Z,98819.47
2023-03-05T08:29:03.402Z,98818.22
2023-03-05T08:31:32.142Z,98814.41
2023-03-05T08:34:03.483Z,98815.84
2023-03-05T08:36:30.880Z,98804.50
2023-03-05T08:38:59.678Z,98807.94
2023-03-05T08:41:27.048Z,98815.50
2023-03-05T08:43:54.430Z,98806.41
2023-03-05T08:46:21.548Z,98812.75
2023-03-05T08:48:49.116Z,98808.75
2023-03-05T08:51:20.180Z,98813.66
2023-03-05T08:53:48.102Z,98810.63
2023-03-05T08:56:15.510Z,98809.66
2023-03-05T08:58:43.896Z,98803.00
2023-03-05T09:01:11.531Z,98799.63
2023-03-05T09:03:39.557Z,98792.63
2023-03-05T09:06:12.202Z,98791.69
2023-03-05T09:08:40.615Z,98789.09
2023-03-05T09:11:11.765Z,98793.66
2023-03-05T09:13:39.387Z,98788.00
2023-03-05T09:16:12.297Z,98785.41
2023-03-05T09:18:40.633Z,98786.50
2023-03-05T09:21:13.012Z,98793.84
2023-03-05T09:23:41.125Z,98782.72
2023-03-05T09:26:12.144Z,98772.66
2023-03-05T09:28:40.890Z,98773.34
2023-03-05T09:31:09.530Z,98770.31
2023-03-05T09:33:38.338Z,98773.19
2023-03-05T09:36:17.143Z,98774.91
2023-03-05T09:38:57.339Z,98764.94
2023-03-05T09:41:59.881Z,98761.56
2023-03-05T09:45:02.607Z,98763.28
2023-03-05T09:48:14.381Z,98758.09
2023-03-05T09:50:56.549Z,98752.00
2023-03-05T09:53:38.696Z,98754.88
2023-03-05T09:56:35.999Z,98751.41
2023-03-05T09:59:59.339Z,98752.09
2023-03-05T10:02:34.310Z,98746.00
2023-03-05T10:05:37.271Z,98743.41
2023-03-05T10:08:05.954Z,98736.72
2023-03-05T10:10:47.314Z,98742.88
2023-03-05T10:13:26.424Z,98729.47
2023-03-05T10:15:56.291Z,98731.94
2023-03-05T10:18:56.409Z,98722.19
2023-03-05T10:21:57.028Z,98722.81
2023-03-05T10:25:09.623Z,98719.00
2023-03-05T10:27:59.466Z,98716.13
2023-03-05T10:30:51.562Z,98721.25
2023-03-05T10:33:33.664Z,98703.16
2023-03-05T10:36:45.736Z,98707.22
2023-03-05T10:39:43.017Z,98697.03
2023-03-05T10:42:51.496Z,98697.84
2023-03-05T10:45:35.674Z,98688.50
2023-03-05T10:48:23.704Z,98688.50
2023-03-05T10:51:00.112Z,98687.25
2023-03-05T10:53:42.867Z,98693.34
2023-03-05T10:56:12.248Z,98696.19
2023-03-05T10:58:39.477Z,98686.81
2023-03-05T11:01:23.568Z,98686.19
2023-03-05T11:04:26.919Z,98686.75
2023-03-05T11:06:53.998Z,98693.25
2023-03-05T11:09:32.488Z,98687.38
2023-03-05T11:12:10.452Z,98690.41
2023-03-05T11:15:02.920Z,98687.53
2023-03-05T11:17:38.265Z,98678.56
2023-03-05T11:20:27.669Z,98682.19
2023-03-05T11:23:26.286Z,98688.00
2023-03-05T11:26:04.307Z,98697.09
2023-03-05T11:28:39.901Z,98689.28
2023-03-05T11:31:16.562Z,98696.91
2023-03-05T11:34:23.595Z,98683.03
2023-03-05T11:36:50.941Z,98682.38
2023-03-05T11:39:22.913Z,98680.53
2023-03-05T11:42:15.087Z,98686.47
2023-03-05T11:44:52.251Z,98688.72
2023-03-05T11:47:46.095Z,98687.59
2023-03-05T11:50:21.997Z,98688.00
2023-03-05T11:52:55.743Z,98674.34
2023-03-05T11:55:45.544Z,98677.75
2023-03-05T11:58:41.146Z,98672.41
2023-03-05T12:01:25.727Z,98669.13
2023-03-05T12:03:55.495Z,98668.22
2023-03-05T12:06:58.405Z,98657.56
2023-03-05T12:09:33.909Z,98657.94
2023-03-05T12:12:52.912Z,98651.22
2023-03-05T12:15:49.993Z,98663.19
2023-03-05T12:18:35.757Z,98660.75
2023-03-05T12:21:26.599Z,98655.84
2023-03-05T12:24:01.681Z,98654.84
2023-03-05T12:26:59.479Z,98653.84
2023-03-05T12:29:41.036Z,98646.94
2023-03-05T12:32:29.003Z,98645.38
2023-03-05T12:35:00.994Z,98641.78
2023-03-05T12:37:28.456Z,98639.03
2023-03-05T12:40:04.806Z,98640.28
2023-03-05T12:42:32.080Z,98635.81
2023-03-05T12:45:22.955Z,98634.63
2023-03-05T12:47:56.051Z,98637.50
2023-03-05T12:50:28.789Z,98633.91
2023-03-05T12:53:14.720Z,98627.25
2023-03-05T12:55:47.371Z,98632.34
2023-03-05T12:58:35.954Z,98625.88
2023-03-05T13:01:29.376Z,98633.38
2023-03-05T13:04:05.136Z,98627.72
2023-03-05T13:06:35.263Z,98624.88
2023-03-05T13:09:07.716Z,98623.50
2023-03-05T13:11:39.112Z,98620.66
2023-03-05T13:14:55.563Z,98632.44
2023-03-05T13:17:54.337Z,98628.19
2023-03-05T13:20:34.309Z,98632.44
2023-03-05T13:23:22.278Z,98630.81
2023-03-05T13:26:18.946Z,98623.50
2023-03-05T13:29:03.483Z,98628.78
2023-03-05T13:31:31.622Z,98625.53
2023-03-05T13:34:11.893Z,98620.63
2023-03-05T13:36:45.419Z,98621.88
2023-03-05T13:39:27.895Z,98613.78
2023-03-05T13:42:31.318Z,98614.97
2023-03-05T13:45:26.050Z,98611.69
2023-03-05T13:48:04.007Z,98617.66
2023-03-05T13:50:38.047Z,98609.78
2023-03-05T13:53:31.723Z,98614.28
2023-03-05T13:56:06.483Z,98616.78
2023-03-05T13:58:57.251Z,98605.03
2023-03-05T14:01:36.670Z,98612.41
2023-03-05T14:04:17.757Z,98593.00
2023-03-05T14:07:26.994Z,98589.44
2023-03-05T14:09:56.674Z,98575.22
2023-03-05T14:12:40.868Z,98580.13
2023-03-05T14:15:27.061Z,98571.63
2023-03-05T14:18:19.863Z,98572.22
2023-03-05T14:21:08.923Z,98581.78
2023-03-05T14:23:41.427Z,98567.94
2023-03-05T14:26:32.773Z,98566.94
2023-03-05T14:29:11.733Z,98562.25
2023-03-05T14:31:57.770Z,98577.72
2023-03-05T14:34:36.776Z,98577.28
2023-03-05T14:37:31.919Z,98566.69
2023-03-05T14:40:06.453Z,98564.06
2023-03-05T14:42:38.734Z,98567.91
2023-03-05T14:45:16.002Z,98557.31
2023-03-05T14:47:43.572Z,98558.94
2023-03-05T14:50:17.289Z,98565.81
2023-03-05T14:52:48.304Z,98563.56
2023-03-05T14:55:19.771Z,98558.91
2023-03-05T14:57:51.401Z,98555.44
2023-03-05T15:00:25.357Z,98556.25
2023-03-05T15:02:53.096Z,98548.69
2023-03-05T15:05:20.632Z,98549.09
2023-03-05T15:07:48.976Z,98556.81
2023-03-05T15:10:20.148Z,98547.06
2023-03-05T15:12:47.785Z,98556.41
2023-03-05T15:15:15.429Z,98559.81
2023-03-05T15:17:47.859Z,98551.09
2023-03-05T15:20:20.044Z,98543.97
2023-03-05T15:22:47.603Z,98540.53
2023-03-05T15:25:15.167Z,98542.97
2023-03-05T15:27:42.964Z,98543.78
2023-03-05T15:30:25.987Z,98537.47
2023-03-05T15:32:55.761Z,98542.59
2023-03-05T15:35:24.724Z,98538.09
2023-03-05T15:37:53.089Z,98537.09
2023-03-05T15:40:21.587Z,98529.97
2023-03-05T15:42:49.156Z,98541.97
2023-03-05T15:45:16.927Z,98534.88
2023-03-05T15:47:44.142Z,98545.44
2023-03-05T15:50:11.846Z,98539.34
2023-03-05T15:52:39.314Z,98538.53
2023-03-05T15:55:07.287Z,98536.69
2023-03-05T15:57:41.909Z,98534.06
2023-03-05T16:00:11.200Z,98534.25
2023-03-05T16:02:38.443Z,98535.28
2023-03-05T16:05:06.442Z,98535.28
2023-03-05T16:07:37.256Z,98535.66
2023-03-05T16:10:06.170Z,98529.94
2023-03-05T16:12:40.758Z,98530.72
2023-03-05T16:15:11.629Z,98535.19
2023-03-05T16:17:43.087Z,98528.63
2023-03-05T16:20:12.732Z,98530.06
2023-03-05T16:22:40.001Z,98529.91
2023-03-05T16:25:08.004Z,98531.91
2023-03-05T16:27:35.660Z,98535.56
2023-03-05T16:30:07.361Z,98531.28
2023-03-05T16:32:34.720Z,98537.38
2023-03-05T16:35:03.168Z,98534.72
2023-03-05T16:37:30.492Z,98542.44
2023-03-05T16:40:00.514Z,98543.25
2023-03-05T16:42:28.666Z,98539.19
2023-03-05T16:44:56.665Z,98543.25
2023-03-05T16:47:25.630Z,98546.88
2023-03-05T16:49:52.788Z,98544.63
2023-03-05T16:52:21.095Z,98548.06
2023-03-05T16:54:48.587Z,98555.38
2023-03-05T16:57:16.362Z,98554.09
2023-03-05T16:59:44.168Z,98552.88
2023-03-05T17:02:13.234Z,98550.84
2023-03-05T17:04:50.383Z,98540.31
2023-03-05T17:07:18.546Z,98550.84
2023-03-05T17:09:47.810Z,98552.44
2023-03-05T17:12:15.190Z,98548.38
2023-03-05T17:14:42.221Z,98550.38
2023-03-05T17:17:09.552Z,98558.06
2023-03-05T17:19:36.911Z,98556.47
2023-03-05T17:22:04.736Z,98558.47
2023-03-05T17:24:32.923Z,98556.47
2023-03-05T17:27:00.919Z,98556.06
2023-03-05T17:29:29.080Z,98561.34
2023-03-05T17:31:56.357Z,98573.91
2023-03-05T17:34:35.508Z,98562.94
2023-03-05T17:37:04.976Z,98564.50
2023-03-05T17:39:32.360Z,98570.16
2023-03-05T17:42:05.661Z,98577.09
2023-03-05T17:44:32.890Z,98581.91
2023-03-05T17:47:00.328Z,98572.56
2023-03-05T17:49:29.455Z,98570.94
2023-03-05T17:51:56.977Z,98576.22
2023-03-05T17:54:24.082Z,98567.03
2023-03-05T17:56:57.762Z,98574.94
2023-03-05T17:59:25.798Z,98572.53
2023-03-05T18:01:53.015Z,98573.91
2023-03-05T18:04:20.568Z,98572.47
2023-03-05T18:06:47.871Z,98578.53
2023-03-05T18:09:14.864Z,98581.00
2023-03-05T18:11:42.339Z,98579.75
2023-03-05T18:14:09.464Z,98583.78
2023-03-05T18:16:36.653Z,98583.16
2023-03-05T18:19:03.913Z,98584.16
2023-03-05T18:21:31.232Z,98586.53
2023-03-05T18:23:58.401Z,98583.66
2023-03-05T18:26:25.818Z,98581.22
2023-03-05T18:28:53.001Z,98579.97
2023-03-05T18:31:20.441Z,98577.97
2023-03-05T18:33:47.673Z,98587.69
2023-03-05T18:36:15.414Z,98581.41
2023-03-05T18:38:43.056Z,98576.31
2023-03-05T18:41:22.238Z,98581.91
2023-03-05T18:43:50.520Z,98593.47
2023-03-05T18:46:18.586Z,98588.00
2023-03-05T18:48:48.253Z,98590.44
2023-03-05T18:51:19.395Z,98587.19
2023-03-05T18:53:46.487Z,98584.75
2023-03-05T18:56:14.186Z,98586.38
2023-03-05T18:58:41.334Z,98587.56
2023-03-05T19:01:09.349Z,98583.94
2023-03-05T19:03:36.657Z,98573.38
2023-03-05T19:06:08.586Z,98574.38
2023-03-05T19:08:36.021Z,98575.81
2023-03-05T19:11:03.754Z,98573.00
2023-03-05T19:13:39.801Z,98578.28
2023-03-05T19:16:17.748Z,98575.28
2023-03-05T19:19:27.590Z,98571.00
2023-03-05T19:22:00.551Z,98575.06
2023-03-05T19:24:33.268Z,98572.66
2023-03-05T19:27:03.344Z,98568.16
2023-03-05T19:29:32.966Z,98565.72
2023-03-05T19:32:00.491Z,98577.72
2023-03-05T19:34:27.523Z,98579.16
2023-03-05T19:36:54.781Z,98574.72
2023-03-05T19:39:21.765Z,98571.88
2023-03-05T19:41:49.120Z,98584.06
2023-03-05T19:44:18.554Z,98583.81
2023-03-05T19:46:48.344Z,98581.78
2023-03-05T19:49:19.660Z,98584.06
2023-03-05T19:51:48.186Z,98582.03
2023-03-05T19:54:18.854Z,98583.22
2023-03-05T19:56:48.481Z,98582.41
2023-03-05T19:59:18.624Z,98581.78
2023-03-05T20:01:46.119Z,98580.16
2023-03-05T20:04:25.640Z,98573.88
2023-03-05T20:06:52.955Z,98578.53
2023-03-05T20:09:20.257Z,98584.75
2023-03-05T20:11:47.979Z,98580.66
2023-03-05T20:14:15.138Z,98573.75
2023-03-05T20:16:43.449Z,98568.13
2023-03-05T20:19:16.996Z,98563.28
2023-03-05T20:21:45.209Z,98560.47
2023-03-05T20:24:16.819Z,98563.72
2023-03-05T20:26:46.728Z,98566.97
2023-03-05T20:29:17.658Z,98567.78
2023-03-05T20:31:46.559Z,98562.72
2023-03-05T20:34:17.588Z,98568.97
2023-03-05T20:36:45.619Z,98571.00
2023-03-05T20:39:12.756Z,98560.47
2023-03-05T20:41:40.484Z,98561.28
2023-03-05T20:44:08.626Z,98558.81
2023-03-05T20:46:45.266Z,98551.56
2023-03-05T20:49:12.255Z,98555.81
2023-03-05T20:51:39.536Z,98553.16
2023-03-05T20:54:11.606Z,98559.25
2023-03-05T20:56:39.493Z,98561.69
2023-03-05T20:59:09.028Z,98555.19
2023-03-05T21:01:39.899Z,98553.53
2023-03-05T21:04:08.508Z,98544.84
2023-03-05T21:06:36.357Z,98544.66
2023-03-05T21:09:04.387Z,98547.28
2023-03-05T21:11:32.260Z,98543.00
2023-03-05T21:13:59.358Z,98544.66
2023-03-05T21:16:28.026Z,98544.44
2023-03-05T21:18:57.126Z,98538.56
2023-03-05T21:21:25.003Z,98537.56
2023-03-05T21:23:53.425Z,98537.34
2023-03-05T21:26:21.374Z,98535.34
2023-03-05T21:28:48.370Z,98530.06
2023-03-05T21:31:20.601Z,98522.78
2023-03-05T21:33:48.170Z,98524.41
2023-03-05T21:36:19.131Z,98523.22
2023-03-05T21:38:48.224Z,98517.56
2023-03-05T21:41:17.910Z,98526.09
2023-03-05T21:43:44.939Z,98511.09
2023-03-05T21:46:12.383Z,98512.09
2023-03-05T21:48:39.614Z,98514.75
2023-03-05T21:51:08.924Z,98512.94
2023-03-05T21:53:36.487Z,98511.09
2023-03-05T21:56:19.572Z,98510.91
2023-03-05T21:58:47.934Z,98514.38
2023-03-05T22:01:18.549Z,98509.09
2023-03-05T22:03:46.101Z,98499.38
2023-03-05T22:06:16.137Z,98500.81
2023-03-05T22:08:43.443Z,98500.97
2023-03-05T22:11:16.974Z,98510.72
2023-03-05T22:13:44.599Z,98492.91
2023-03-05T22:16:21.329Z,98511.97
2023-03-05T22:18:48.397Z,98507.06
2023-03-05T22:21:23.145Z,98479.72
2023-03-05T22:23:50.267Z,98502.19
2023-03-05T22:26:17.576Z,98505.84
2023-03-05T22:28:44.856Z,98492.81
2023-03-05T22:31:20.796Z,98484.91
2023-03-05T22:33:48.563Z,98482.94
2023-03-05T22:36:16.787Z,98503.00
2023-03-05T22:38:44.376Z,98489.41
2023-03-05T22:41:15.601Z,98488.38
2023-03-05T22:43:42.847Z,98484.75
2023-03-05T22:46:16.664Z,98487.00
2023-03-05T22:48:45.167Z,98475.44
2023-03-05T22:51:13.768Z,98477.91
2023-03-05T22:53:41.809Z,98480.72
2023-03-05T22:56:14.211Z,98478.06
2023-03-05T22:58:42.125Z,98470.16
2023-03-05T23:01:22.412Z,98476.66
2023-03-05T23:03:54.857Z,98473.03
2023-03-05T23:06:22.266Z,98470.19
2023-03-05T23:08:49.278Z,98467.75
2023-03-05T23:11:16.890Z,98472.22
2023-03-05T23:13:43.800Z,98472.22
2023-03-05T23:16:11.034Z,98460.66
2023-03-05T23:18:38.166Z,98464.13
2023-03-05T23:21:05.655Z,98451.75
2023-03-05T23:23:32.687Z,98461.50
2023-03-05T23:26:00.035Z,98458.03
2023-03-05T23:28:27.130Z,98465.75
2023-03-05T23:30:54.489Z,98471.00
2023-03-05T23:33:23.380Z,98458.84
2023-03-05T23:35:59.713Z,98467.38
2023-03-05T23:38:29.582Z,98463.94
2023-03-05T23:41:01.154Z,98465.75
2023-03-05T23:43:29.826Z,98456.00
2023-03-05T23:45:57.390Z,98460.47
2023-03-05T23:48:26.332Z,98455.19
2023-03-05T23:50:54.660Z,98462.09
2023-03-05T23:53:28.340Z,98468.38
2023-03-05T23:55:56.091Z,98464.75
2023-03-05T23:58:23.790Z,98467.38
